Time;durP1;ratioP1;P1;durP2;ratioP2;P2;SDS_P1;SDS_P2;PMS_P1;PMS_P2;Temp;Humidity;BMP_temperature;BMP_pressure;BME280_temperature;BME280_humidity;BME280_pressure;Samples;Min_cycle;Max_cycle;Signal;HPM_P1;HPM_P2
2022/04/07 00:00:33;;;;;;;12.07;6.10;;;;;;;10.04;nan;99241.59;5007091;28;20042;-68
2022/04/07 00:02:59;;;;;;;10.88;6.20;;;;;;;10.02;nan;99233.94;5009221;28;20041;-68
2022/04/07 00:05:24;;;;;;;11.15;6.40;;;;;;;9.96;nan;99230.50;5011677;28;20034;-69
2022/04/07 00:07:50;;;;;;;12.63;5.63;;;;;;;9.97;nan;99236.53;5012054;28;20025;-68
2022/04/07 00:10:15;;;;;;;14.27;5.88;;;;;;;9.90;nan;99205.19;5008376;28;20045;-69
2022/04/07 00:12:42;;;;;;;13.07;6.25;;;;;;;9.93;nan;99209.13;5010393;28;20041;-69
2022/04/07 00:15:11;;;;;;;10.50;6.07;;;;;;;9.87;nan;99208.31;5011182;28;20041;-68
2022/04/07 00:17:37;;;;;;;10.77;6.15;;;;;;;9.89;nan;99210.66;5010968;28;20454;-67
2022/04/07 00:20:04;;;;;;;9.45;5.82;;;;;;;9.62;nan;99160.75;5010901;28;20121;-69
2022/04/07 00:22:29;;;;;;;9.82;5.43;;;;;;;9.77;nan;99193.25;5009960;28;20045;-67
2022/04/07 00:24:54;;;;;;;9.57;5.80;;;;;;;9.78;nan;99194.81;5026673;28;20064;-69
2022/04/07 00:27:20;;;;;;;12.63;5.10;;;;;;;9.77;nan;99190.59;5009697;28;20065;-69
2022/04/07 00:29:45;;;;;;;8.13;5.28;;;;;;;9.78;nan;99197.44;5010957;28;20838;-69
2022/04/07 00:32:11;;;;;;;11.18;5.18;;;;;;;9.72;nan;99173.97;5010851;28;20514;-68
2022/04/07 00:34:37;;;;;;;14.27;5.35;;;;;;;9.52;nan;99143.06;5011299;28;20056;-68
2022/04/07 00:37:02;;;;;;;13.43;5.10;;;;;;;9.75;nan;99176.13;5011010;28;20132;-70
2022/04/07 00:39:28;;;;;;;9.13;4.93;;;;;;;9.66;nan;99162.63;5011497;28;20430;-69
2022/04/07 00:41:53;;;;;;;9.23;5.63;;;;;;;9.53;nan;99142.81;5009199;28;20422;-70
2022/04/07 00:44:22;;;;;;;8.98;5.35;;;;;;;9.70;nan;99165.56;5011412;28;20105;-69
2022/04/07 00:46:47;;;;;;;8.45;4.85;;;;;;;9.61;nan;99159.19;5009702;28;20038;-68
2022/04/07 00:49:12;;;;;;;9.65;5.60;;;;;;;9.72;nan;99169.53;5025869;28;20073;-67
2022/04/07 00:51:39;;;;;;;10.25;5.43;;;;;;;9.76;nan;99178.50;5010713;28;20372;-68
2022/04/07 00:54:06;;;;;;;8.65;5.43;;;;;;;9.71;nan;99165.31;5010773;28;20042;-68
2022/04/07 00:56:34;;;;;;;10.40;4.85;;;;;;;9.72;nan;99182.69;5010681;28;20072;-68
2022/04/07 00:59:00;;;;;;;10.05;5.32;;;;;;;9.70;nan;99171.63;4996792;28;20042;-68
2022/04/07 01:01:28;;;;;;;11.82;5.80;;;;;;;9.57;nan;99151.75;5010679;28;20078;-69
2022/04/07 01:03:54;;;;;;;11.10;6.47;;;;;;;9.61;nan;99159.97;5010522;28;20073;-68
2022/04/07 01:06:19;;;;;;;11.90;4.95;;;;;;;9.56;nan;99159.91;5010163;28;20448;-68
2022/04/07 01:08:46;;;;;;;9.07;5.07;;;;;;;9.27;nan;99120.75;5010803;28;20072;-68
2022/04/07 01:11:12;;;;;;;7.82;4.97;;;;;;;9.54;nan;99152.28;5010501;28;20038;-68
2022/04/07 01:13:43;;;;;;;9.07;4.88;;;;;;;9.66;nan;99162.63;5008845;28;20037;-66
2022/04/07 01:16:09;;;;;;;8.90;4.75;;;;;;;9.66;nan;99162.63;5009333;28;20042;-68
2022/04/07 01:18:34;;;;;;;9.20;4.63;;;;;;;9.56;nan;99150.19;5009145;28;20487;-67
2022/04/07 01:20:59;;;;;;;11.45;5.10;;;;;;;9.61;nan;99161.81;5010488;28;20415;-68
2022/04/07 01:23:27;;;;;;;8.05;4.90;;;;;;;9.64;nan;99163.94;5010476;28;20045;-68
2022/04/07 01:25:53;;;;;;;9.63;5.15;;;;;;;9.64;nan;99159.44;5010338;28;20042;-66
2022/04/07 01:28:18;;;;;;;10.48;5.28;;;;;;;9.59;nan;99156.78;5010383;28;20094;-67
2022/04/07 01:30:44;;;;;;;8.27;4.65;;;;;;;9.57;nan;99149.13;5010620;28;20061;-71
2022/04/07 01:33:09;;;;;;;8.48;5.18;;;;;;;9.57;nan;99149.13;5008179;28;20511;-69
2022/04/07 01:35:35;;;;;;;8.98;5.13;;;;;;;9.56;nan;99147.56;5009764;28;20048;-67
2022/04/07 01:38:01;;;;;;;11.13;5.40;;;;;;;9.57;nan;99158.88;5007864;28;20052;-68
2022/04/07 01:40:33;;;;;;;11.00;5.55;;;;;;;9.58;nan;99160.47;5010518;28;20068;-70
2022/04/07 01:43:01;;;;;;;8.82;5.63;;;;;;;9.44;nan;99152.19;5009756;28;20033;-67
2022/04/07 01:45:26;;;;;;;10.40;5.65;;;;;;;9.40;nan;99158.97;5008482;28;20609;-69
2022/04/07 01:47:54;;;;;;;7.85;4.95;;;;;;;9.46;nan;99199.25;5010370;28;20041;-68
2022/04/07 01:50:23;;;;;;;9.57;5.25;;;;;;;9.35;nan;99209.63;5008984;28;20551;-67
2022/04/07 01:52:48;;;;;;;8.88;5.65;;;;;;;9.19;nan;99186.06;5007934;28;20535;-68
2022/04/07 01:55:16;;;;;;;9.48;4.30;;;;;;;9.21;nan;99199.72;5008769;28;20030;-68
2022/04/07 01:57:43;;;;;;;9.80;5.32;;;;;;;9.18;nan;99187.09;5008988;28;20038;-68
2022/04/07 02:00:09;;;;;;;8.02;4.22;;;;;;;9.09;nan;99157.84;5008117;28;20061;-69
2022/04/07 02:02:34;;;;;;;6.82;3.30;;;;;;;9.27;nan;99175.13;5008080;28;20033;-67
2022/04/07 02:05:08;;;;;;;6.47;3.40;;;;;;;9.24;nan;99157.22;5009545;28;20034;-68
2022/04/07 02:07:33;;;;;;;6.63;3.40;;;;;;;9.37;nan;99167.34;5024118;28;20121;-68
2022/04/07 02:09:59;;;;;;;7.05;3.10;;;;;;;9.44;nan;99164.53;5009789;28;20132;-67
2022/04/07 02:12:27;;;;;;;6.30;3.13;;;;;;;9.54;nan;99169.88;5012965;28;20403;-69
2022/04/07 02:14:53;;;;;;;4.75;2.67;;;;;;;9.48;nan;99144.59;5009893;28;20160;-70
2022/04/07 02:17:20;;;;;;;5.03;2.78;;;;;;;9.76;nan;99162.72;5009541;28;20124;-67
2022/04/07 02:19:50;;;;;;;4.20;2.28;;;;;;;9.96;nan;99148.16;5009765;28;20503;-68
2022/04/07 02:22:17;;;;;;;11.48;2.70;;;;;;;10.12;nan;99149.84;5008509;28;20029;-69
2022/04/07 02:24:43;;;;;;;11.07;2.47;;;;;;;10.30;nan;99146.06;5009501;28;20042;-68
2022/04/07 02:27:08;;;;;;;13.65;2.95;;;;;;;10.54;nan;99141.22;5009880;28;20038;-69
2022/04/07 02:29:34;;;;;;;9.25;2.90;;;;;;;10.74;nan;99150.25;5008139;28;20033;-68
2022/04/07 02:32:00;;;;;;;17.33;2.92;;;;;;;10.91;nan;99148.22;5009410;28;20045;-68
2022/04/07 02:34:26;;;;;;;23.42;3.10;;;;;;;;;;5008621;28;20042;-68
2022/04/07 02:36:51;;;;;;;12.60;2.83;;;;;;;;;;5009134;28;20124;-68
2022/04/07 02:39:16;;;;;;;20.37;3.73;;;;;;;;;;5009263;28;20041;-68
2022/04/07 02:41:41;;;;;;;16.30;4.17;;;;;;;;;;5008112;28;20592;-69
2022/04/07 02:44:07;;;;;;;13.85;2.97;;;;;;;;;;5006805;28;20107;-66
2022/04/07 02:46:32;;;;;;;22.03;4.30;;;;;;;;;;5008950;28;20042;-69
2022/04/07 02:48:57;;;;;;;27.10;3.35;;;;;;;;;;5009732;28;20358;-68
2022/04/07 02:51:24;;;;;;;22.10;3.83;;;;;;;;;;5019107;28;20041;-70
2022/04/07 02:53:49;;;;;;;26.45;3.78;;;;;;;;;;5017609;28;20881;-69
2022/04/07 02:56:14;;;;;;;24.88;3.85;;;;;;;;;;5021072;28;20122;-71
2022/04/07 02:58:40;;;;;;;23.15;3.55;;;;;;;;;;5019706;28;20034;-71
2022/04/07 03:01:05;;;;;;;23.63;4.07;;;;;;;;;;5019386;28;20496;-69
2022/04/07 03:03:30;;;;;;;18.90;3.65;;;;;;;;;;5014347;28;20259;-70
2022/04/07 03:05:55;;;;;;;22.73;3.83;;;;;;;;;;5012173;28;20042;-69
2022/04/07 03:08:21;;;;;;;16.70;3.20;;;;;;;;;;5012625;28;20271;-69
2022/04/07 03:10:46;;;;;;;13.98;3.92;;;;;;;;;;5018298;28;20040;-70
2022/04/07 03:13:11;;;;;;;10.80;2.83;;;;;;;;;;5016452;28;20033;-71
2022/04/07 03:15:37;;;;;;;15.85;3.75;;;;;;;;;;5014597;28;20034;-68
2022/04/07 03:18:02;;;;;;;9.70;3.10;;;;;;;;;;5029210;28;20510;-69
2022/04/07 03:20:27;;;;;;;15.35;3.90;;;;;;;;;;5018905;28;20041;-69
2022/04/07 03:22:53;;;;;;;13.00;3.47;;;;;;;;;;5017151;28;20464;-70
2022/04/07 03:25:18;;;;;;;16.40;4.15;;;;;;;;;;5020491;28;20332;-69
2022/04/07 03:27:43;;;;;;;16.98;3.55;;;;;;;;;;5015085;28;20041;-72
2022/04/07 03:30:09;;;;;;;13.33;4.20;;;;;;;;;;5018265;28;20487;-69
2022/04/07 03:32:34;;;;;;;14.15;4.15;;;;;;;;;;5018366;28;20283;-70
2022/04/07 03:34:59;;;;;;;20.80;4.00;;;;;;;;;;5024222;28;20049;-69
2022/04/07 03:37:24;;;;;;;18.60;4.23;;;;;;;;;;5013554;28;20272;-70
2022/04/07 03:39:50;;;;;;;26.63;4.40;;;;;;;;;;5019438;28;20104;-70
2022/04/07 03:42:15;;;;;;;23.37;3.33;;;;;;;;;;5013013;28;20275;-70
2022/04/07 03:44:40;;;;;;;17.88;3.40;;;;;;;;;;5010233;28;20640;-71
2022/04/07 03:47:06;;;;;;;23.13;3.90;;;;;;;;;;5011673;28;20045;-70
2022/04/07 03:49:31;;;;;;;22.20;3.50;;;;;;;;;;5011529;28;20275;-71
2022/04/07 03:51:57;;;;;;;20.77;3.83;;;;;;;;;;5007326;28;20042;-73
2022/04/07 03:54:22;;;;;;;26.73;3.53;;;;;;;;;;5011710;28;20618;-70
2022/04/07 03:56:47;;;;;;;23.30;3.92;;;;;;;;;;5012212;28;20095;-70
2022/04/07 03:59:13;;;;;;;24.77;3.80;;;;;;;;;;5012292;28;20045;-71
2022/04/07 04:01:39;;;;;;;24.13;3.90;;;;;;;;;;5012071;28;20033;-71
2022/04/07 04:04:04;;;;;;;38.60;5.53;;;;;;;;;;5010253;28;20045;-71
2022/04/07 04:06:30;;;;;;;15.68;4.03;;;;;;;;;;5011968;28;20064;-70
2022/04/07 04:08:55;;;;;;;30.13;4.65;;;;;;;;;;5011795;28;20045;-72
2022/04/07 04:11:21;;;;;;;25.83;4.57;;;;;;;;;;5012331;28;20112;-72
2022/04/07 04:13:46;;;;;;;26.00;3.73;;;;;;;;;;5011437;28;20279;-73
2022/04/07 04:16:14;;;;;;;36.67;5.17;;;;;;;;;;5007632;28;20030;-73
2022/04/07 04:18:40;;;;;;;26.95;3.80;;;;;;;;;;5010425;28;20287;-69
2022/04/07 04:21:05;;;;;;;29.98;4.95;;;;;;;;;;5012242;28;20096;-70
2022/04/07 04:23:30;;;;;;;38.42;5.63;;;;;;;;;;5011507;28;20045;-71
2022/04/07 04:25:56;;;;;;;31.98;4.85;;;;;;;;;;5012020;28;20080;-71
2022/04/07 04:28:21;;;;;;;27.63;3.83;;;;;;;;;;5010431;28;20044;-71
2022/04/07 04:30:46;;;;;;;32.13;5.23;;;;;;;;;;5011815;28;20302;-70
2022/04/07 04:33:11;;;;;;;26.80;4.90;;;;;;;;;;5011189;28;20271;-72
2022/04/07 04:35:37;;;;;;;30.10;3.80;;;;;;;;;;5009767;28;20096;-71
2022/04/07 04:38:02;;;;;;;19.27;4.00;;;;;;;;;;5011734;28;20267;-71
2022/04/07 04:40:27;;;;;;;30.58;4.72;;;;;;;;;;5011545;28;20271;-70
2022/04/07 04:42:52;;;;;;;32.42;5.95;;;;;;;;;;5010201;28;20197;-70
2022/04/07 04:45:18;;;;;;;34.60;4.68;;;;;;;;;;5011480;28;20038;-71
2022/04/07 04:47:43;;;;;;;23.27;3.50;;;;;;;10.25;nan;99161.81;5010309;28;20049;-72
2022/04/07 04:50:09;;;;;;;25.65;4.22;;;;;;;;;;5011251;28;20263;-71
2022/04/07 04:52:34;;;;;;;27.45;4.10;;;;;;;;;;5011219;28;20048;-70
2022/04/07 04:54:59;;;;;;;32.30;4.68;;;;;;;;;;5011397;28;20034;-70
2022/04/07 04:57:25;;;;;;;43.20;6.43;;;;;;;;;;5009400;28;20037;-71
2022/04/07 04:59:50;;;;;;;27.65;4.95;;;;;;;;;;5010694;28;20116;-72
2022/04/07 05:02:15;;;;;;;28.33;5.28;;;;;;;;;;5003136;28;20037;-69
2022/04/07 05:04:41;;;;;;;26.77;4.93;;;;;;;;;;5009532;28;20083;-67
2022/04/07 05:07:06;;;;;;;34.75;5.65;;;;;;;;;;5010484;28;20733;-68
2022/04/07 05:09:31;;;;;;;27.00;4.47;;;;;;;;;;5010436;28;20502;-68
2022/04/07 05:11:58;;;;;;;24.65;5.07;;;;;;;;;;5004302;28;20287;-67
2022/04/07 05:14:23;;;;;;;27.13;4.40;;;;;;;;;;5009777;28;20407;-70
2022/04/07 05:16:48;;;;;;;20.52;4.25;;;;;;;;;;5009185;28;20314;-69
2022/04/07 05:19:14;;;;;;;30.38;5.50;;;;;;;;;;5010537;28;20066;-69
2022/04/07 05:21:39;;;;;;;26.38;5.10;;;;;;;;;;5009262;28;20499;-67
2022/04/07 05:24:05;;;;;;;20.40;3.90;;;;;;;;;;5009953;28;20033;-69
2022/04/07 05:26:30;;;;;;;21.33;3.63;;;;;;;;;;5010721;28;20046;-70
2022/04/07 05:28:55;;;;;;;19.03;4.53;;;;;;;;;;5009193;28;20047;-68
2022/04/07 05:31:20;;;;;;;22.85;4.25;;;;;;;;;;5018042;28;20042;-67
2022/04/07 05:33:46;;;;;;;31.52;4.70;;;;;;;;;;5009441;28;20037;-67
2022/04/07 05:36:11;;;;;;;24.73;3.37;;;;;;;;;;5009928;28;20054;-66
2022/04/07 05:38:36;;;;;;;21.42;3.92;;;;;;;;;;5008578;28;20503;-67
2022/04/07 05:41:01;;;;;;;18.75;3.92;;;;;;;;;;5010338;28;20718;-68
2022/04/07 05:43:27;;;;;;;21.80;3.90;;;;;;;;;;5023559;28;20042;-68
2022/04/07 05:45:52;;;;;;;24.67;3.53;;;;;;;;;;5010738;28;20300;-69
2022/04/07 05:48:18;;;;;;;15.48;4.93;;;;;;;;;;5010413;28;20030;-70
2022/04/07 05:50:44;;;;;;;23.23;3.05;;;;;;;;;;5009700;28;20042;-69
2022/04/07 05:53:10;;;;;;;20.15;3.20;;;;;;;;;;5009658;28;20510;-68
2022/04/07 05:55:36;;;;;;;16.48;2.72;;;;;;;;;;5009365;28;20044;-69
2022/04/07 05:58:04;;;;;;;20.40;3.17;;;;;;;;;;5009311;28;20038;-68
2022/04/07 06:00:30;;;;;;;17.60;3.40;;;;;;;;;;5009764;28;20040;-67
2022/04/07 06:02:55;;;;;;;22.58;3.78;;;;;;;;;;5025379;28;20037;-67
2022/04/07 06:05:20;;;;;;;16.63;3.43;;;;;;;;;;5008198;28;20042;-68
2022/04/07 06:07:47;;;;;;;21.67;3.30;;;;;;;;;;5010093;28;20566;-67
2022/04/07 06:10:13;;;;;;;12.82;3.50;;;;;;;;;;5023792;28;20114;-68
2022/04/07 06:12:42;;;;;;;23.92;3.33;;;;;;;;;;5009938;28;20068;-66
2022/04/07 06:15:07;;;;;;;15.70;3.15;;;;;;;;;;5024428;28;20080;-67
2022/04/07 06:17:38;;;;;;;17.92;2.67;;;;;;;;;;5008969;28;20036;-67
2022/04/07 06:20:06;;;;;;;15.38;2.70;;;;;;;;;;5010190;28;20038;-67
2022/04/07 06:22:31;;;;;;;9.27;2.65;;;;;;;;;;5011826;28;20129;-67
2022/04/07 06:24:56;;;;;;;13.85;1.98;;;;;;;;;;5018144;28;20392;-67
2022/04/07 06:27:22;;;;;;;15.00;2.37;;;;;;;;;;5011841;28;20069;-68
2022/04/07 06:29:47;;;;;;;14.13;2.45;;;;;;;;;;5018530;28;20266;-68
2022/04/07 06:32:12;;;;;;;15.80;2.83;;;;;;;;;;5019111;28;20038;-68
2022/04/07 06:34:37;;;;;;;8.67;2.43;;;;;;;;;;5016810;28;20144;-67
2022/04/07 06:37:03;;;;;;;12.37;2.23;;;;;;;;;;5017466;28;20046;-68
2022/04/07 06:39:28;;;;;;;11.55;2.40;;;;;;;;;;5014105;28;20502;-67
2022/04/07 06:41:53;;;;;;;28.87;5.57;;;;;;;;;;5010344;28;20041;-68
2022/04/07 06:44:21;;;;;;;14.93;2.22;;;;;;;;;;5005770;28;20038;-70
2022/04/07 06:46:46;;;;;;;14.73;3.28;;;;;;;;;;5013037;28;20038;-72
2022/04/07 06:49:12;;;;;;;9.33;2.63;;;;;;;;;;5010229;28;20122;-72
2022/04/07 06:51:37;;;;;;;18.85;3.20;;;;;;;;;;5013809;28;20259;-69
2022/04/07 06:54:02;;;;;;;12.37;2.97;;;;;;;;;;5009362;28;20035;-75
2022/04/07 06:56:27;;;;;;;16.47;3.90;;;;;;;;;;5011565;28;20573;-72
2022/04/07 06:58:54;;;;;;;15.67;3.00;;;;;;;;;;5012544;28;20283;-72
2022/04/07 07:01:19;;;;;;;12.00;3.05;;;;;;;;;;5012679;28;20271;-71
2022/04/07 07:03:44;;;;;;;14.27;5.10;;;;;;;;;;5027781;28;20396;-69
2022/04/07 07:06:10;;;;;;;11.77;4.20;;;;;;;;;;5012931;28;20291;-69
2022/04/07 07:08:35;;;;;;;15.57;3.58;;;;;;;;;;5014916;28;20661;-68
2022/04/07 07:11:01;;;;;;;12.37;3.47;;;;;;;;;;5012921;28;20787;-69
2022/04/07 07:13:26;;;;;;;13.57;3.20;;;;;;;;;;5013114;28;20272;-69
2022/04/07 07:15:51;;;;;;;18.15;3.53;;;;;;;;;;5028132;28;20480;-69
2022/04/07 07:18:17;;;;;;;13.07;3.90;;;;;;;;;;5012941;28;20053;-70
2022/04/07 07:20:42;;;;;;;15.98;3.60;;;;;;;;;;5012665;28;20041;-70
2022/04/07 07:23:07;;;;;;;16.88;4.20;;;;;;;;;;5012949;28;20037;-70
2022/04/07 07:25:33;;;;;;;13.88;3.80;;;;;;;;;;5012975;28;20042;-69
2022/04/07 07:27:59;;;;;;;14.32;4.20;;;;;;;;;;5013084;28;20048;-69
2022/04/07 07:30:25;;;;;;;16.35;3.78;;;;;;;;;;5011967;28;20041;-69
2022/04/07 07:32:51;;;;;;;17.35;4.43;;;;;;;;;;5012856;28;20068;-69
2022/04/07 07:35:20;;;;;;;16.15;4.15;;;;;;;;;;5010625;28;20060;-69
2022/04/07 07:38:01;;;;;;;19.40;4.70;;;;;;;;;;5027137;28;20072;-68
2022/04/07 07:40:31;;;;;;;15.35;3.97;;;;;;;;;;5010015;28;20050;-67
2022/04/07 07:42:56;;;;;;;15.25;4.20;;;;;;;;;;5013236;28;20073;-68
2022/04/07 07:45:25;;;;;;;15.63;5.22;;;;;;;;;;5011393;28;20070;-70
2022/04/07 07:47:52;;;;;;;19.40;4.60;;;;;;;;;;5012831;28;20033;-70
2022/04/07 07:50:17;;;;;;;14.68;4.63;;;;;;;;;;5011151;28;20041;-69
2022/04/07 07:52:43;;;;;;;15.68;4.60;;;;;;;;;;5022862;28;20530;-70
2022/04/07 07:55:08;;;;;;;16.45;4.47;;;;;;;;;;5012475;28;20038;-69
2022/04/07 07:57:34;;;;;;;17.08;6.00;;;;;;;;;;5012210;28;20041;-70
2022/04/07 07:59:59;;;;;;;20.83;5.47;;;;;;;;;;4998889;28;20092;-70
2022/04/07 08:02:24;;;;;;;10.68;4.70;;;;;;;;;;5008981;28;20985;-70
2022/04/07 08:04:50;;;;;;;16.35;4.97;;;;;;;;;;5011997;28;20033;-69
2022/04/07 08:07:15;;;;;;;19.73;4.97;;;;;;;;;;5010268;28;20041;-68
2022/04/07 08:09:41;;;;;;;14.85;4.18;;;;;;;;;;5010310;28;20638;-70
2022/04/07 08:12:06;;;;;;;18.13;3.95;;;;;;;;;;5024152;28;20042;-70
2022/04/07 08:14:31;;;;;;;17.77;4.07;;;;;;;;;;5008104;28;20034;-70
2022/04/07 08:16:57;;;;;;;22.87;5.80;;;;;;;;;;5012169;28;20042;-70
2022/04/07 08:19:22;;;;;;;22.17;5.00;;;;;;;;;;5011447;28;20049;-70
2022/04/07 08:21:47;;;;;;;14.57;4.53;;;;;;;;;;5027133;28;20037;-69
2022/04/07 08:24:15;;;;;;;20.63;6.47;;;;;;;;;;5011575;28;20092;-69
2022/04/07 08:26:40;;;;;;;17.23;6.07;;;;;;;;;;5012008;28;20045;-68
2022/04/07 08:29:06;;;;;;;12.38;5.45;;;;;;;;;;5011350;28;20041;-69
2022/04/07 08:31:31;;;;;;;18.10;5.70;;;;;;;;;;5011456;28;20100;-69
2022/04/07 08:33:56;;;;;;;20.02;6.03;;;;;;;;;;5011726;28;20034;-69
2022/04/07 08:36:21;;;;;;;16.13;6.17;;;;;;;;;;5025583;28;20104;-69
2022/04/07 08:38:47;;;;;;;11.80;5.17;;;;;;;;;;5026647;28;20756;-68
2022/04/07 08:41:12;;;;;;;14.85;4.78;;;;;;;;;;5011310;28;20719;-69
2022/04/07 08:43:42;;;;;;;17.17;5.43;;;;;;;;;;5011769;28;20037;-69
2022/04/07 08:46:08;;;;;;;19.55;5.93;;;;;;;;;;5011139;28;20570;-68
2022/04/07 08:48:38;;;;;;;18.05;8.05;;;;;;;;;;5011376;28;20037;-68
2022/04/07 08:51:04;;;;;;;16.00;5.97;;;;;;;;;;5011658;28;20034;-69
2022/04/07 08:53:30;;;;;;;14.48;6.65;;;;;;;;;;5011078;28;20034;-68
2022/04/07 08:55:55;;;;;;;19.15;5.43;;;;;;;;;;5011542;28;20044;-69
2022/04/07 08:58:20;;;;;;;16.25;6.00;;;;;;;;;;5010726;28;20081;-68
2022/04/07 09:00:47;;;;;;;12.30;5.13;;;;;;;;;;5011060;28;20041;-68
2022/04/07 09:03:12;;;;;;;16.27;5.82;;;;;;;;;;5010556;28;20045;-69
2022/04/07 09:05:50;;;;;;;11.43;4.97;;;;;;;;;;5011281;28;20037;-70
2022/04/07 09:08:16;;;;;;;9.95;4.82;;;;;;;;;;5011254;28;20282;-70
2022/04/07 09:10:41;;;;;;;11.05;5.05;;;;;;;;;;5010753;28;20038;-69
2022/04/07 09:13:06;;;;;;;15.00;5.73;;;;;;;;;;5011136;28;20040;-70
2022/04/07 09:15:31;;;;;;;22.92;5.85;;;;;;;;;;5010716;28;20271;-69
2022/04/07 09:17:59;;;;;;;19.55;6.13;;;;;;;;;;5008898;28;20033;-69
2022/04/07 09:20:24;;;;;;;15.48;6.53;;;;;;;;;;5012490;28;20053;-70
2022/04/07 09:22:56;;;;;;;11.40;5.50;;;;;;;;;;5007708;28;20391;-69
2022/04/07 09:25:22;;;;;;;13.40;6.05;;;;;;;;;;5010312;28;20287;-69
2022/04/07 09:27:50;;;;;;;12.75;6.18;;;;;;;;;;5009419;28;20036;-68
2022/04/07 09:30:15;;;;;;;16.67;5.53;;;;;;;;;;5010910;28;20033;-68
2022/04/07 09:32:44;;;;;;;8.48;4.43;;;;;;;;;;5025259;28;20052;-69
2022/04/07 09:35:11;;;;;;;10.53;5.20;;;;;;;;;;5010166;28;20045;-68
2022/04/07 09:37:37;;;;;;;14.63;5.78;;;;;;;;;;5010405;28;20510;-70
2022/04/07 09:40:10;;;;;;;14.07;6.45;;;;;;;;;;5023280;28;20123;-70
2022/04/07 09:42:36;;;;;;;18.13;6.45;;;;;;;;;;5003129;28;20037;-69
2022/04/07 09:45:03;;;;;;;13.80;5.28;;;;;;;;;;5010144;28;20120;-69
2022/04/07 09:47:37;;;;;;;7.68;3.97;;;;;;;;;;5010359;28;20112;-68
2022/04/07 09:50:03;;;;;;;11.80;4.10;;;;;;;;;;5012443;28;20510;-69
2022/04/07 09:52:28;;;;;;;17.27;6.63;;;;;;;;;;5019572;28;20038;-69
2022/04/07 09:54:56;;;;;;;13.77;4.50;;;;;;;;;;5017770;28;20034;-70
2022/04/07 09:57:22;;;;;;;17.30;7.40;;;;;;;;;;5019099;28;20030;-69
2022/04/07 09:59:48;;;;;;;13.77;4.97;;;;;;;;;;5017660;28;20120;-70
2022/04/07 10:02:14;;;;;;;9.57;4.30;;;;;;;;;;5017826;28;20068;-70
2022/04/07 10:04:40;;;;;;;8.43;4.55;;;;;;;;;;5017357;28;20092;-69
2022/04/07 10:07:09;;;;;;;11.60;5.78;;;;;;;;;;5018181;28;20034;-69
2022/04/07 10:09:34;;;;;;;11.15;4.88;;;;;;;;;;5012989;28;20765;-68
2022/04/07 10:12:00;;;;;;;13.60;5.60;;;;;;;;;;5007868;28;20049;-69
2022/04/07 10:14:27;;;;;;;16.15;6.72;;;;;;;;;;5009955;28;20065;-69
2022/04/07 10:16:52;;;;;;;10.90;5.05;;;;;;;;;;5011256;28;20038;-70
2022/04/07 10:19:53;;;;;;;13.30;4.63;;;;;;;;;;5009613;28;20044;-69
2022/04/07 10:22:26;;;;;;;10.48;3.63;;;;;;;;;;4981420;28;20718;-69
2022/04/07 10:24:54;;;;;;;12.38;4.75;;;;;;;;;;4987869;28;20045;-70
2022/04/07 10:27:20;;;;;;;7.65;3.30;;;;;;;;;;4988171;28;20053;-69
2022/04/07 10:30:05;;;;;;;9.18;3.53;;;;;;;;;;4987248;28;20070;-69
2022/04/07 10:32:36;;;;;;;12.02;3.60;;;;;;;;;;4987200;28;20031;-67
2022/04/07 10:35:01;;;;;;;10.40;4.22;;;;;;;;;;4985601;28;20832;-68
2022/04/07 10:37:30;;;;;;;12.10;4.35;;;;;;;;;;4986030;28;20041;-68
2022/04/07 10:39:55;;;;;;;16.17;5.00;;;;;;;;;;4979174;28;20038;-68
2022/04/07 10:42:40;;;;;;;15.73;4.60;;;;;;;;;;4986799;28;20041;-68
2022/04/07 10:45:06;;;;;;;11.35;5.00;;;;;;;;;;4986128;28;20050;-68
2022/04/07 10:47:32;;;;;;;10.80;4.55;;;;;;;;;;4987404;28;20524;-68
2022/04/07 10:49:58;;;;;;;10.80;4.53;;;;;;;;;;4986166;28;20038;-68
2022/04/07 10:52:26;;;;;;;12.07;4.70;;;;;;;;;;4984469;28;20042;-69
2022/04/07 10:55:13;;;;;;;7.65;4.18;;;;;;;;;;4986527;28;20531;-69
2022/04/07 10:57:58;;;;;;;8.60;4.38;;;;;;;;;;4970338;28;20034;-69
2022/04/07 11:00:37;;;;;;;10.02;4.60;;;;;;;;;;4968153;28;20034;-69
2022/04/07 11:03:15;;;;;;;16.05;4.85;;;;;;;;;;4975266;28;20036;-69
2022/04/07 11:06:07;;;;;;;9.15;4.32;;;;;;;;;;4969256;28;20729;-69
2022/04/07 11:08:33;;;;;;;10.18;4.25;;;;;;;;;;4968548;28;20117;-70
2022/04/07 11:10:58;;;;;;;9.65;4.20;;;;;;;;;;4969092;28;20556;-68
2022/04/07 11:13:43;;;;;;;11.65;4.63;;;;;;;;;;4973189;28;20330;-70
2022/04/07 11:16:23;;;;;;;9.63;4.70;;;;;;;;;;4973880;28;20049;-71
2022/04/07 11:19:00;;;;;;;9.52;4.35;;;;;;;;;;4974835;28;20031;-71
2022/04/07 11:21:25;;;;;;;10.35;4.22;;;;;;;;;;4974700;28;20041;-71
2022/04/07 11:23:52;;;;;;;6.68;4.07;;;;;;;;;;4969164;28;20389;-70
2022/04/07 11:26:19;;;;;;;7.97;4.60;;;;;;;;;;4977705;28;20130;-71
2022/04/07 11:29:02;;;;;;;13.90;4.55;;;;;;;;;;4915128;28;23152;-71
2022/04/07 11:31:41;;;;;;;6.97;4.00;;;;;;;;;;4934224;28;20035;-68
2022/04/07 11:34:26;;;;;;;11.83;4.50;;;;;;;;;;4915904;28;20596;-69
2022/04/07 11:36:51;;;;;;;11.18;4.63;;;;;;;;;;4921737;28;20097;-67
2022/04/07 11:39:16;;;;;;;9.90;4.53;;;;;;;;;;4922138;28;20397;-69
2022/04/07 11:41:43;;;;;;;16.17;4.53;;;;;;;;;;4922487;28;20425;-68
2022/04/07 11:44:09;;;;;;;13.40;4.30;;;;;;;;;;4921150;28;20582;-70
2022/04/07 11:46:34;;;;;;;12.45;4.43;;;;;;;;;;4921878;28;20027;-68
2022/04/07 11:49:00;;;;;;;8.20;4.88;;;;;;;;;;4922039;28;20053;-68
2022/04/07 11:51:26;;;;;;;8.90;3.85;;;;;;;;;;4921785;28;20058;-68
2022/04/07 11:53:55;;;;;;;10.68;4.03;;;;;;;;;;4920903;28;20165;-68
2022/04/07 11:56:21;;;;;;;10.27;4.18;;;;;;;;;;4918822;28;20039;-69
2022/04/07 11:58:54;;;;;;;11.13;4.40;;;;;;;;;;4921252;28;20622;-71
2022/04/07 12:01:19;;;;;;;11.68;4.93;;;;;;;;;;4936173;28;20150;-72
2022/04/07 12:03:44;;;;;;;8.95;4.22;;;;;;;;;;4921313;28;20030;-72
2022/04/07 12:06:10;;;;;;;12.77;4.30;;;;;;;;;;4921582;28;20509;-72
2022/04/07 12:08:35;;;;;;;8.82;4.28;;;;;;;;;;4920388;28;20268;-72
2022/04/07 12:11:01;;;;;;;13.00;4.40;;;;;;;;;;4921506;28;20109;-71
2022/04/07 12:13:26;;;;;;;18.10;7.30;;;;;;;;;;4927578;28;20034;-71
2022/04/07 12:15:51;;;;;;;22.65;7.07;;;;;;;;;;4921114;28;20129;-71
2022/04/07 12:18:26;;;;;;;15.30;5.10;;;;;;;;;;4921923;28;20440;-72
2022/04/07 12:20:59;;;;;;;16.52;4.88;;;;;;;;;;4920453;28;22056;-72
2022/04/07 12:23:28;;;;;;;12.93;4.97;;;;;;;;;;4921862;28;20748;-70
2022/04/07 12:26:01;;;;;;;19.35;9.13;;;;;;;;;;4920651;28;20133;-72
2022/04/07 12:28:40;;;;;;;14.82;6.38;;;;;;;;;;4935057;28;20677;-72
2022/04/07 12:31:25;;;;;;;10.80;5.07;;;;;;;;;;4942859;28;20551;-72
2022/04/07 12:33:50;;;;;;;10.00;4.88;;;;;;;;;;4970465;28;20038;-71
2022/04/07 12:36:32;;;;;;;6.90;4.47;;;;;;;;;;4981927;28;20058;-73
2022/04/07 12:38:58;;;;;;;15.32;4.80;;;;;;;;;;4972727;28;20109;-73
2022/04/07 12:41:34;;;;;;;10.63;5.45;;;;;;;;;;4987609;28;20042;-73
2022/04/07 12:43:59;;;;;;;10.20;4.97;;;;;;;;;;4977584;28;20049;-70
2022/04/07 12:46:41;;;;;;;13.25;5.50;;;;;;;;;;4972944;28;20039;-70
2022/04/07 12:49:07;;;;;;;14.70;5.63;;;;;;;;;;4972978;28;20441;-71
2022/04/07 12:51:33;;;;;;;12.10;5.82;;;;;;;;;;4973160;28;20039;-71
2022/04/07 12:54:04;;;;;;;12.52;6.30;;;;;;;;;;4987684;28;20512;-71
2022/04/07 12:56:29;;;;;;;14.80;6.05;;;;;;;;;;4972667;28;20034;-71
2022/04/07 12:59:03;;;;;;;14.47;6.70;;;;;;;;;;4973173;28;20492;-70
2022/04/07 13:01:29;;;;;;;9.70;5.03;;;;;;;;;;4971946;28;20308;-71
2022/04/07 13:03:56;;;;;;;10.73;5.13;;;;;;;;;;4986993;28;20041;-70
2022/04/07 13:06:22;;;;;;;10.65;5.65;;;;;;;;;;4986995;28;20106;-70
2022/04/07 13:08:47;;;;;;;10.23;5.45;;;;;;;;;;4972628;28;20717;-71
2022/04/07 13:11:28;;;;;;;8.60;4.90;;;;;;;;;;4987131;28;20034;-71
2022/04/07 13:13:53;;;;;;;8.57;6.07;;;;;;;;;;4972580;28;20081;-71
2022/04/07 13:16:18;;;;;;;14.20;6.33;;;;;;;;;;4972790;28;20026;-71
2022/04/07 13:18:44;;;;;;;11.15;6.07;;;;;;;;;;4989133;28;20276;-72
2022/04/07 13:21:09;;;;;;;11.50;6.05;;;;;;;;;;4972807;28;20066;-71
2022/04/07 13:23:34;;;;;;;11.32;5.97;;;;;;;;;;4972496;28;20038;-71
2022/04/07 13:25:59;;;;;;;11.50;6.63;;;;;;;;;;4972434;28;20043;-70
2022/04/07 13:28:25;;;;;;;9.80;4.73;;;;;;;;;;4971874;28;20652;-71
2022/04/07 13:30:50;;;;;;;7.30;4.23;;;;;;;;;;4986909;28;20278;-70
2022/04/07 13:33:15;;;;;;;8.35;4.38;;;;;;;;;;4970878;28;20742;-70
2022/04/07 13:35:41;;;;;;;5.97;3.15;;;;;;;;;;4992928;28;20092;-70
2022/04/07 13:38:06;;;;;;;7.28;3.38;;;;;;;;;;5025835;28;20602;-71
2022/04/07 13:40:31;;;;;;;5.20;3.00;;;;;;;;;;5024467;28;20586;-69
2022/04/07 13:42:56;;;;;;;5.55;2.97;;;;;;;;;;5010063;28;20271;-71
2022/04/07 13:45:22;;;;;;;6.53;3.53;;;;;;;;;;5011033;28;20037;-71
2022/04/07 13:47:47;;;;;;;7.70;3.70;;;;;;;;;;5010818;28;20033;-71
2022/04/07 13:50:12;;;;;;;5.20;3.20;;;;;;;;;;5009119;28;20343;-72
2022/04/07 13:52:38;;;;;;;6.88;3.42;;;;;;;;;;5011301;28;20263;-73
2022/04/07 13:55:03;;;;;;;10.10;3.33;;;;;;;;;;5025691;28;20041;-72